PWSweather.com
Personal Weather Stations
Station Observations
AS787
Cloppers Mill East, Germantown, MD 20874-2154

Cloppers Mill EastGermantown, MD 20874-2154

Lat: 39.1522, Lon: -77.2679

Elevation: 318

Station Type: 1-Wire

http://www.cloppermillweather.org/

High Low Average
Temperature 81.6°F27.6°C 66.0°F18.9°C 72.1°F22.3°C
Dew Point 72.7°F22.6°C 64.4°F18.0°C 68.4°F20.2°C
Winds 0.9 mph 1.4 kmh Calm Calm Calm WCalm W
Wind Gusts 5.0 mph8.0 kmh -- 1.0 mph1.6 kmh
Humidity 98% 69% 88%
Pressure 30.15 in1021.0 mb 29.94 in1013.9 mb -
Precipitation 0.00 in0.0 mm - -
Hour Temp Dew Point Humidity Winds Wind Gusts Pressure Precip Precip Rate Daily Precip Total
12:21 AM 66.0°F18.9°C 64.6°F18.1°C 95% Calm Calm -- 30.15 in1021.0 mb 0.00 in0.0 mm 0.00 in0.0 mm 0.00 in0.0 mm
12:51 AM 66.2°F19.0°C 64.7°F18.2°C 95% Calm Calm -- 30.14 in1020.7 mb 0.00 in0.0 mm 0.00 in0.0 mm 0.00 in0.0 mm
01:21 AM 66.3°F19.1°C 64.8°F18.2°C 95% Calm Calm -- 30.14 in1020.7 mb 0.00 in0.0 mm 0.00 in0.0 mm 0.00 in0.0 mm
01:51 AM 66.3°F19.1°C 64.8°F18.2°C 95% Calm Calm -- 30.14 in1020.7 mb 0.00 in0.0 mm 0.00 in0.0 mm 0.00 in0.0 mm
02:21 AM 66.5°F19.2°C 65.1°F18.4°C 95% Calm Calm -- 30.14 in1020.7 mb 0.00 in0.0 mm 0.00 in0.0 mm 0.00 in0.0 mm
02:51 AM 66.9°F19.4°C 64.8°F18.2°C 93% Calm Calm -- 30.14 in1020.7 mb 0.00 in0.0 mm 0.00 in0.0 mm 0.00 in0.0 mm
03:21 AM 67.3°F19.6°C 65.5°F18.6°C 94% Calm Calm -- 30.13 in1020.3 mb 0.00 in0.0 mm 0.00 in0.0 mm 0.00 in0.0 mm
03:51 AM 67.2°F19.6°C 65.4°F18.6°C 94% Calm Calm -- 30.12 in1020.0 mb 0.00 in0.0 mm 0.00 in0.0 mm 0.00 in0.0 mm
04:21 AM 66.8°F19.3°C 64.7°F18.2°C 93% Calm Calm -- 30.13 in1020.3 mb 0.00 in0.0 mm 0.00 in0.0 mm 0.00 in0.0 mm
04:51 AM 66.5°F19.2°C 64.5°F18.1°C 93% Calm Calm -- 30.12 in1020.0 mb 0.00 in0.0 mm 0.00 in0.0 mm 0.00 in0.0 mm
05:21 AM 66.1°F18.9°C 64.4°F18.0°C 94% Calm Calm -- 30.13 in1020.3 mb 0.00 in0.0 mm 0.00 in0.0 mm 0.00 in0.0 mm
05:51 AM 66.1°F18.9°C 64.4°F18.0°C 94% Calm Calm -- 30.13 in1020.3 mb 0.00 in0.0 mm 0.00 in0.0 mm 0.00 in0.0 mm
06:21 AM 66.7°F19.3°C 64.9°F18.3°C 94% Calm Calm -- 30.13 in1020.3 mb 0.00 in0.0 mm 0.00 in0.0 mm 0.00 in0.0 mm
06:51 AM 68.2°F20.1°C 65.3°F18.5°C 90% Calm Calm -- 30.13 in1020.3 mb 0.00 in0.0 mm 0.00 in0.0 mm 0.00 in0.0 mm
07:21 AM 69.8°F21.0°C 65.8°F18.8°C 87% Calm Calm -- 30.12 in1020.0 mb 0.00 in0.0 mm 0.00 in0.0 mm 0.00 in0.0 mm
07:51 AM 71.2°F21.8°C 66.6°F19.2°C 85% Calm Calm -- 30.12 in1020.0 mb 0.00 in0.0 mm 0.00 in0.0 mm 0.00 in0.0 mm
08:21 AM 71.9°F22.2°C 67.0°F19.4°C 84% Calm Calm -- 30.12 in1020.0 mb 0.00 in0.0 mm 0.00 in0.0 mm 0.00 in0.0 mm
08:51 AM 72.3°F22.4°C 67.2°F19.6°C 84% Calm Calm -- 30.12 in1020.0 mb 0.00 in0.0 mm 0.00 in0.0 mm 0.00 in0.0 mm
09:21 AM 73.9°F23.3°C 68.2°F20.1°C 82% Calm Calm 1.0 mph1.6 kmh 30.11 in1019.6 mb 0.00 in0.0 mm 0.00 in0.0 mm 0.00 in0.0 mm
09:51 AM 74.5°F23.6°C 68.5°F20.3°C 81% Calm Calm -- 30.11 in1019.6 mb 0.00 in0.0 mm 0.00 in0.0 mm 0.00 in0.0 mm
10:21 AM 74.0°F23.3°C 68.3°F20.2°C 82% 0.2 mph W0.3 kmh W 2.0 mph3.2 kmh 30.11 in1019.6 mb 0.00 in0.0 mm 0.00 in0.0 mm 0.00 in0.0 mm
10:51 AM 74.4°F23.6°C 69.1°F20.6°C 83% Calm Calm -- 30.11 in1019.6 mb 0.00 in0.0 mm 0.00 in0.0 mm 0.00 in0.0 mm
11:21 AM 75.3°F24.1°C 69.7°F20.9°C 82% Calm Calm -- 30.11 in1019.6 mb 0.00 in0.0 mm 0.00 in0.0 mm 0.00 in0.0 mm
11:51 AM 76.2°F24.6°C 70.0°F21.1°C 81% 0.9 mph W1.4 kmh W 5.0 mph8.0 kmh 30.10 in1019.3 mb 0.00 in0.0 mm 0.00 in0.0 mm 0.00 in0.0 mm
12:21 PM 75.9°F24.4°C 70.5°F21.4°C 83% 0.8 mph W1.3 kmh W 3.0 mph4.8 kmh 30.10 in1019.3 mb 0.00 in0.0 mm 0.00 in0.0 mm 0.00 in0.0 mm
12:51 PM 76.6°F24.8°C 70.6°F21.4°C 81% Calm Calm -- 30.09 in1019.0 mb 0.00 in0.0 mm 0.00 in0.0 mm 0.00 in0.0 mm
01:21 PM 78.1°F25.6°C 71.9°F22.2°C 81% Calm Calm 4.0 mph6.4 kmh 30.07 in1018.3 mb 0.00 in0.0 mm 0.00 in0.0 mm 0.00 in0.0 mm
01:51 PM 81.6°F27.6°C 71.4°F21.9°C 71% Calm Calm 4.0 mph6.4 kmh 30.04 in1017.3 mb 0.00 in0.0 mm 0.00 in0.0 mm 0.00 in0.0 mm
02:21 PM 81.6°F27.6°C 70.6°F21.4°C 69% 0.0 mph WNW0.0 kmh WNW 3.0 mph4.8 kmh 30.04 in1017.3 mb 0.00 in0.0 mm 0.00 in0.0 mm 0.00 in0.0 mm
02:51 PM 79.4°F26.3°C 69.8°F21.0°C 72% 0.5 mph W0.8 kmh W 3.0 mph4.8 kmh 30.02 in1016.6 mb 0.00 in0.0 mm 0.00 in0.0 mm 0.00 in0.0 mm
03:21 PM 79.7°F26.5°C 70.4°F21.3°C 73% 0.6 mph W1.0 kmh W 3.0 mph4.8 kmh 30.02 in1016.6 mb 0.00 in0.0 mm 0.00 in0.0 mm 0.00 in0.0 mm
03:51 PM 80.0°F26.7°C 70.8°F21.6°C 73% 0.5 mph W0.8 kmh W 3.0 mph4.8 kmh 30.02 in1016.6 mb 0.00 in0.0 mm 0.00 in0.0 mm 0.00 in0.0 mm
04:21 PM 78.7°F25.9°C 71.5°F21.9°C 78% Calm Calm -- 30.00 in1015.9 mb 0.00 in0.0 mm 0.00 in0.0 mm 0.00 in0.0 mm
04:51 PM 78.0°F25.6°C 71.9°F22.2°C 81% Calm Calm -- 30.00 in1015.9 mb 0.00 in0.0 mm 0.00 in0.0 mm 0.00 in0.0 mm
05:21 PM 76.8°F24.9°C 72.4°F22.4°C 86% Calm Calm -- 30.00 in1015.9 mb 0.00 in0.0 mm 0.00 in0.0 mm 0.00 in0.0 mm
05:51 PM 75.4°F24.1°C 72.5°F22.5°C 91% Calm Calm -- 29.98 in1015.2 mb 0.01 in0.3 mm 0.02 in0.5 mm 0.01 in0.3 mm
06:21 PM 74.6°F23.7°C 72.7°F22.6°C 94% Calm Calm -- 29.99 in1015.6 mb 0.02 in0.5 mm 0.02 in0.5 mm 0.02 in0.5 mm
06:51 PM 74.0°F23.3°C 72.5°F22.5°C 95% Calm Calm -- 29.99 in1015.6 mb 0.06 in1.5 mm 0.08 in2.0 mm 0.06 in1.5 mm
07:21 PM 73.7°F23.2°C 72.3°F22.4°C 95% Calm Calm -- 30.00 in1015.9 mb 0.07 in1.8 mm 0.02 in0.5 mm 0.07 in1.8 mm
07:51 PM 73.0°F22.8°C 71.8°F22.1°C 96% Calm Calm -- 30.00 in1015.9 mb 0.18 in4.6 mm 0.22 in5.6 mm 0.18 in4.6 mm
08:21 PM 72.7°F22.6°C 71.5°F21.9°C 96% Calm Calm -- 29.99 in1015.6 mb 0.06 in1.5 mm 0.00 in0.0 mm 0.18 in4.6 mm
08:51 PM 70.9°F21.6°C 69.6°F20.9°C 96% Calm Calm -- 29.99 in1015.6 mb 0.16 in4.1 mm 0.20 in5.1 mm 0.28 in7.1 mm
09:21 PM 70.0°F21.1°C 68.6°F20.3°C 95% Calm Calm 4.0 mph6.4 kmh 30.01 in1016.3 mb 0.08 in2.0 mm 0.00 in0.0 mm 0.28 in7.1 mm
09:51 PM 69.0°F20.6°C 67.8°F19.9°C 96% Calm Calm -- 30.00 in1015.9 mb 0.44 in11.2 mm 0.72 in18.3 mm 0.64 in16.3 mm
10:21 PM 68.9°F20.5°C 68.0°F20.0°C 97% Calm Calm -- 29.99 in1015.6 mb 0.34 in8.6 mm 0.00 in0.0 mm 0.64 in16.3 mm
10:51 PM 68.9°F20.5°C 68.0°F20.0°C 97% Calm Calm -- 29.96 in1014.6 mb 0.68 in17.3 mm 0.68 in17.3 mm 0.98 in24.9 mm
11:21 PM 69.1°F20.6°C 68.5°F20.3°C 98% Calm Calm 1.0 mph1.6 kmh 29.95 in1014.2 mb 0.00 in0.0 mm 0.00 in0.0 mm 0.98 in24.9 mm
11:51 PM 69.1°F20.6°C 68.5°F20.3°C 98% Calm Calm -- 29.94 in1013.9 mb 0.00 in0.0 mm 0.00 in0.0 mm 0.98 in24.9 mm